sensor_id;sensor_type;location;lat;lon;timestamp;P1;durP1;ratioP1;P2;durP2;ratioP2
9108;SDS011;4590;51.462;6.692;2022-11-12T00:01:07;5.33;;;3.57;;
9108;SDS011;4590;51.462;6.692;2022-11-12T00:03:32;8.27;;;3.70;;
9108;SDS011;4590;51.462;6.692;2022-11-12T00:05:58;4.73;;;3.00;;
9108;SDS011;4590;51.462;6.692;2022-11-12T00:08:23;5.10;;;2.97;;
9108;SDS011;4590;51.462;6.692;2022-11-12T00:10:48;6.47;;;3.70;;
9108;SDS011;4590;51.462;6.692;2022-11-12T00:13:14;7.57;;;3.50;;
9108;SDS011;4590;51.462;6.692;2022-11-12T00:15:39;5.97;;;3.70;;
9108;SDS011;4590;51.462;6.692;2022-11-12T00:18:05;5.67;;;3.57;;
9108;SDS011;4590;51.462;6.692;2022-11-12T00:22:56;6.63;;;3.03;;
9108;SDS011;4590;51.462;6.692;2022-11-12T00:25:22;5.10;;;3.40;;
9108;SDS011;4590;51.462;6.692;2022-11-12T00:27:47;5.93;;;3.67;;
9108;SDS011;4590;51.462;6.692;2022-11-12T00:30:12;4.50;;;3.50;;
9108;SDS011;4590;51.462;6.692;2022-11-12T00:32:37;5.27;;;3.53;;
9108;SDS011;4590;51.462;6.692;2022-11-12T00:35:03;5.57;;;3.30;;
9108;SDS011;4590;51.462;6.692;2022-11-12T00:37:30;5.45;;;3.35;;
9108;SDS011;4590;51.462;6.692;2022-11-12T00:39:55;6.37;;;3.40;;
9108;SDS011;4590;51.462;6.692;2022-11-12T00:42:20;6.23;;;3.27;;
9108;SDS011;4590;51.462;6.692;2022-11-12T00:44:45;4.50;;;3.30;;
9108;SDS011;4590;51.462;6.692;2022-11-12T00:47:11;6.43;;;3.57;;
9108;SDS011;4590;51.462;6.692;2022-11-12T00:49:36;4.87;;;3.60;;
9108;SDS011;4590;51.462;6.692;2022-11-12T00:52:01;6.90;;;3.40;;
9108;SDS011;4590;51.462;6.692;2022-11-12T00:54:27;6.47;;;3.80;;
9108;SDS011;4590;51.462;6.692;2022-11-12T00:56:52;7.07;;;4.47;;
9108;SDS011;4590;51.462;6.692;2022-11-12T00:59:17;5.57;;;3.60;;
9108;SDS011;4590;51.462;6.692;2022-11-12T01:01:42;6.67;;;3.50;;
9108;SDS011;4590;51.462;6.692;2022-11-12T01:04:08;5.27;;;3.47;;
9108;SDS011;4590;51.462;6.692;2022-11-12T01:06:33;6.77;;;4.00;;
9108;SDS011;4590;51.462;6.692;2022-11-12T01:08:59;5.95;;;3.63;;
9108;SDS011;4590;51.462;6.692;2022-11-12T01:11:28;5.60;;;3.70;;
9108;SDS011;4590;51.462;6.692;2022-11-12T01:13:55;5.35;;;3.60;;
9108;SDS011;4590;51.462;6.692;2022-11-12T01:16:24;5.07;;;3.70;;
9108;SDS011;4590;51.462;6.692;2022-11-12T01:18:55;6.15;;;3.70;;
9108;SDS011;4590;51.462;6.692;2022-11-12T01:21:23;6.15;;;3.42;;
9108;SDS011;4590;51.462;6.692;2022-11-12T01:23:50;5.45;;;3.65;;
9108;SDS011;4590;51.462;6.692;2022-11-12T01:26:16;4.13;;;2.87;;
9108;SDS011;4590;51.462;6.692;2022-11-12T01:28:42;5.28;;;3.42;;
9108;SDS011;4590;51.462;6.692;2022-11-12T01:31:12;6.83;;;3.50;;
9108;SDS011;4590;51.462;6.692;2022-11-12T01:33:44;6.28;;;3.65;;
9108;SDS011;4590;51.462;6.692;2022-11-12T01:36:12;6.25;;;3.72;;
9108;SDS011;4590;51.462;6.692;2022-11-12T01:38:39;7.40;;;4.28;;
9108;SDS011;4590;51.462;6.692;2022-11-12T01:41:06;5.90;;;4.07;;
9108;SDS011;4590;51.462;6.692;2022-11-12T01:43:32;6.55;;;4.13;;
9108;SDS011;4590;51.462;6.692;2022-11-12T01:45:58;5.77;;;3.77;;
9108;SDS011;4590;51.462;6.692;2022-11-12T01:48:29;6.65;;;3.97;;
9108;SDS011;4590;51.462;6.692;2022-11-12T01:51:02;5.22;;;3.80;;
9108;SDS011;4590;51.462;6.692;2022-11-12T01:53:29;6.45;;;4.28;;
9108;SDS011;4590;51.462;6.692;2022-11-12T01:56:00;6.20;;;3.97;;
9108;SDS011;4590;51.462;6.692;2022-11-12T01:58:27;7.35;;;4.10;;
9108;SDS011;4590;51.462;6.692;2022-11-12T02:00:55;5.80;;;3.83;;
9108;SDS011;4590;51.462;6.692;2022-11-12T02:03:22;6.95;;;4.00;;
9108;SDS011;4590;51.462;6.692;2022-11-12T02:05:50;6.25;;;3.72;;
9108;SDS011;4590;51.462;6.692;2022-11-12T02:08:21;6.18;;;3.90;;
9108;SDS011;4590;51.462;6.692;2022-11-12T02:10:48;7.32;;;4.43;;
9108;SDS011;4590;51.462;6.692;2022-11-12T02:13:14;6.18;;;4.32;;
9108;SDS011;4590;51.462;6.692;2022-11-12T02:15:58;6.40;;;4.00;;
9108;SDS011;4590;51.462;6.692;2022-11-12T02:18:24;5.17;;;4.00;;
9108;SDS011;4590;51.462;6.692;2022-11-12T02:20:53;7.10;;;4.47;;
9108;SDS011;4590;51.462;6.692;2022-11-12T02:23:21;5.90;;;3.58;;
9108;SDS011;4590;51.462;6.692;2022-11-12T02:25:46;6.83;;;3.93;;
9108;SDS011;4590;51.462;6.692;2022-11-12T02:28:11;5.63;;;3.97;;
9108;SDS011;4590;51.462;6.692;2022-11-12T02:33:04;7.70;;;4.47;;
9108;SDS011;4590;51.462;6.692;2022-11-12T02:35:30;7.50;;;4.10;;
9108;SDS011;4590;51.462;6.692;2022-11-12T02:37:55;6.03;;;4.10;;
9108;SDS011;4590;51.462;6.692;2022-11-12T02:40:21;6.17;;;3.80;;
9108;SDS011;4590;51.462;6.692;2022-11-12T02:42:46;6.35;;;3.83;;
9108;SDS011;4590;51.462;6.692;2022-11-12T02:45:12;6.13;;;3.63;;
9108;SDS011;4590;51.462;6.692;2022-11-12T02:47:37;6.03;;;4.20;;
9108;SDS011;4590;51.462;6.692;2022-11-12T02:50:03;5.50;;;3.47;;
9108;SDS011;4590;51.462;6.692;2022-11-12T02:52:29;4.90;;;3.63;;
9108;SDS011;4590;51.462;6.692;2022-11-12T02:54:54;5.47;;;3.73;;
9108;SDS011;4590;51.462;6.692;2022-11-12T02:57:19;5.40;;;3.80;;
9108;SDS011;4590;51.462;6.692;2022-11-12T02:59:45;4.90;;;3.30;;
9108;SDS011;4590;51.462;6.692;2022-11-12T03:02:10;7.60;;;3.83;;
9108;SDS011;4590;51.462;6.692;2022-11-12T03:04:35;6.07;;;4.00;;
9108;SDS011;4590;51.462;6.692;2022-11-12T03:07:00;6.00;;;3.70;;
9108;SDS011;4590;51.462;6.692;2022-11-12T03:09:26;6.50;;;3.87;;
9108;SDS011;4590;51.462;6.692;2022-11-12T03:11:51;7.90;;;4.07;;
9108;SDS011;4590;51.462;6.692;2022-11-12T03:14:16;4.97;;;3.83;;
9108;SDS011;4590;51.462;6.692;2022-11-12T03:16:41;7.67;;;3.77;;
9108;SDS011;4590;51.462;6.692;2022-11-12T03:19:07;5.57;;;3.67;;
9108;SDS011;4590;51.462;6.692;2022-11-12T03:21:32;6.50;;;3.73;;
9108;SDS011;4590;51.462;6.692;2022-11-12T03:23:57;6.20;;;3.80;;
9108;SDS011;4590;51.462;6.692;2022-11-12T03:26:22;6.00;;;3.77;;
9108;SDS011;4590;51.462;6.692;2022-11-12T03:28:49;5.33;;;3.60;;
9108;SDS011;4590;51.462;6.692;2022-11-12T03:31:15;7.20;;;3.90;;
9108;SDS011;4590;51.462;6.692;2022-11-12T03:33:40;7.00;;;3.60;;
9108;SDS011;4590;51.462;6.692;2022-11-12T03:36:05;6.07;;;4.00;;
9108;SDS011;4590;51.462;6.692;2022-11-12T03:38:31;6.07;;;3.80;;
9108;SDS011;4590;51.462;6.692;2022-11-12T03:40:56;6.50;;;3.87;;
9108;SDS011;4590;51.462;6.692;2022-11-12T03:43:22;5.60;;;3.70;;
9108;SDS011;4590;51.462;6.692;2022-11-12T03:45:47;8.30;;;4.17;;
9108;SDS011;4590;51.462;6.692;2022-11-12T03:48:12;5.47;;;3.70;;
9108;SDS011;4590;51.462;6.692;2022-11-12T03:50:37;5.67;;;3.60;;
9108;SDS011;4590;51.462;6.692;2022-11-12T03:53:03;5.17;;;3.10;;
9108;SDS011;4590;51.462;6.692;2022-11-12T03:55:28;4.20;;;3.03;;
9108;SDS011;4590;51.462;6.692;2022-11-12T03:57:55;4.82;;;3.65;;
9108;SDS011;4590;51.462;6.692;2022-11-12T04:02:47;5.82;;;3.00;;
9108;SDS011;4590;51.462;6.692;2022-11-12T04:05:12;5.20;;;3.40;;
9108;SDS011;4590;51.462;6.692;2022-11-12T04:10:44;5.72;;;3.35;;
9108;SDS011;4590;51.462;6.692;2022-11-12T04:16:32;6.82;;;3.60;;
9108;SDS011;4590;51.462;6.692;2022-11-12T04:19:16;6.28;;;3.45;;
9108;SDS011;4590;51.462;6.692;2022-11-12T04:22:02;5.95;;;3.42;;
9108;SDS011;4590;51.462;6.692;2022-11-12T04:24:30;6.22;;;3.38;;
9108;SDS011;4590;51.462;6.692;2022-11-12T04:27:20;5.90;;;3.20;;
9108;SDS011;4590;51.462;6.692;2022-11-12T04:29:47;4.97;;;2.90;;
9108;SDS011;4590;51.462;6.692;2022-11-12T04:32:33;5.45;;;3.28;;
9108;SDS011;4590;51.462;6.692;2022-11-12T04:35:00;4.35;;;3.20;;
9108;SDS011;4590;51.462;6.692;2022-11-12T04:37:26;5.85;;;3.30;;
9108;SDS011;4590;51.462;6.692;2022-11-12T04:39:53;5.28;;;3.13;;
9108;SDS011;4590;51.462;6.692;2022-11-12T04:42:19;6.97;;;3.57;;
9108;SDS011;4590;51.462;6.692;2022-11-12T04:45:09;4.90;;;3.30;;
9108;SDS011;4590;51.462;6.692;2022-11-12T04:47:36;6.00;;;3.40;;
9108;SDS011;4590;51.462;6.692;2022-11-12T04:50:04;6.07;;;3.47;;
9108;SDS011;4590;51.462;6.692;2022-11-12T04:52:37;5.20;;;3.03;;
9108;SDS011;4590;51.462;6.692;2022-11-12T04:55:02;5.10;;;3.30;;
9108;SDS011;4590;51.462;6.692;2022-11-12T04:57:28;6.20;;;3.67;;
9108;SDS011;4590;51.462;6.692;2022-11-12T04:59:53;9.23;;;3.40;;
9108;SDS011;4590;51.462;6.692;2022-11-12T05:02:19;4.80;;;3.07;;
9108;SDS011;4590;51.462;6.692;2022-11-12T05:04:44;5.37;;;3.03;;
9108;SDS011;4590;51.462;6.692;2022-11-12T05:07:10;6.27;;;3.60;;
9108;SDS011;4590;51.462;6.692;2022-11-12T05:09:35;4.65;;;2.92;;
9108;SDS011;4590;51.462;6.692;2022-11-12T05:12:01;5.13;;;3.10;;
9108;SDS011;4590;51.462;6.692;2022-11-12T05:14:26;5.57;;;3.22;;
9108;SDS011;4590;51.462;6.692;2022-11-12T05:16:52;4.30;;;3.13;;
9108;SDS011;4590;51.462;6.692;2022-11-12T05:19:17;4.40;;;2.83;;
9108;SDS011;4590;51.462;6.692;2022-11-12T05:21:43;4.47;;;2.78;;
9108;SDS011;4590;51.462;6.692;2022-11-12T05:24:28;4.43;;;3.10;;
9108;SDS011;4590;51.462;6.692;2022-11-12T05:26:53;4.73;;;3.17;;
9108;SDS011;4590;51.462;6.692;2022-11-12T05:29:18;5.73;;;3.50;;
9108;SDS011;4590;51.462;6.692;2022-11-12T05:31:44;5.87;;;3.07;;
9108;SDS011;4590;51.462;6.692;2022-11-12T05:34:10;5.00;;;3.03;;
9108;SDS011;4590;51.462;6.692;2022-11-12T05:36:36;4.18;;;2.88;;
9108;SDS011;4590;51.462;6.692;2022-11-12T05:39:01;5.13;;;2.90;;
9108;SDS011;4590;51.462;6.692;2022-11-12T05:41:27;4.85;;;3.15;;
9108;SDS011;4590;51.462;6.692;2022-11-12T05:43:52;7.07;;;3.50;;
9108;SDS011;4590;51.462;6.692;2022-11-12T05:46:17;4.87;;;3.07;;
9108;SDS011;4590;51.462;6.692;2022-11-12T05:48:43;5.60;;;3.10;;
9108;SDS011;4590;51.462;6.692;2022-11-12T05:51:08;5.10;;;3.10;;
9108;SDS011;4590;51.462;6.692;2022-11-12T05:53:34;5.60;;;3.23;;
9108;SDS011;4590;51.462;6.692;2022-11-12T05:56:00;4.90;;;3.27;;
9108;SDS011;4590;51.462;6.692;2022-11-12T05:58:26;6.28;;;3.40;;
9108;SDS011;4590;51.462;6.692;2022-11-12T06:00:52;4.60;;;3.30;;
9108;SDS011;4590;51.462;6.692;2022-11-12T06:03:18;6.53;;;3.43;;
9108;SDS011;4590;51.462;6.692;2022-11-12T06:05:43;5.80;;;3.80;;
9108;SDS011;4590;51.462;6.692;2022-11-12T06:08:08;6.00;;;3.40;;
9108;SDS011;4590;51.462;6.692;2022-11-12T06:10:33;5.90;;;3.70;;
9108;SDS011;4590;51.462;6.692;2022-11-12T06:12:59;4.20;;;3.07;;
9108;SDS011;4590;51.462;6.692;2022-11-12T06:15:24;6.93;;;4.23;;
9108;SDS011;4590;51.462;6.692;2022-11-12T06:17:51;6.00;;;3.30;;
9108;SDS011;4590;51.462;6.692;2022-11-12T06:20:17;5.95;;;4.00;;
9108;SDS011;4590;51.462;6.692;2022-11-12T06:22:42;5.87;;;3.63;;
9108;SDS011;4590;51.462;6.692;2022-11-12T06:25:08;5.77;;;3.73;;
9108;SDS011;4590;51.462;6.692;2022-11-12T06:27:33;5.93;;;3.50;;
9108;SDS011;4590;51.462;6.692;2022-11-12T06:29:58;5.80;;;3.33;;
9108;SDS011;4590;51.462;6.692;2022-11-12T06:32:24;5.10;;;3.27;;
9108;SDS011;4590;51.462;6.692;2022-11-12T06:34:49;8.03;;;3.60;;
9108;SDS011;4590;51.462;6.692;2022-11-12T06:37:16;7.20;;;3.72;;
9108;SDS011;4590;51.462;6.692;2022-11-12T06:39:42;5.23;;;3.23;;
9108;SDS011;4590;51.462;6.692;2022-11-12T06:42:07;6.13;;;3.87;;
9108;SDS011;4590;51.462;6.692;2022-11-12T06:44:32;8.10;;;3.60;;
9108;SDS011;4590;51.462;6.692;2022-11-12T06:46:57;5.83;;;3.60;;
9108;SDS011;4590;51.462;6.692;2022-11-12T06:49:23;5.93;;;3.30;;
9108;SDS011;4590;51.462;6.692;2022-11-12T06:51:51;5.67;;;3.17;;
9108;SDS011;4590;51.462;6.692;2022-11-12T06:54:16;5.90;;;4.00;;
9108;SDS011;4590;51.462;6.692;2022-11-12T06:56:41;7.87;;;4.03;;
9108;SDS011;4590;51.462;6.692;2022-11-12T06:59:06;6.97;;;3.60;;
9108;SDS011;4590;51.462;6.692;2022-11-12T07:01:32;7.37;;;3.50;;
9108;SDS011;4590;51.462;6.692;2022-11-12T07:03:57;7.00;;;4.00;;
9108;SDS011;4590;51.462;6.692;2022-11-12T07:06:23;8.03;;;3.93;;
9108;SDS011;4590;51.462;6.692;2022-11-12T07:08:48;6.60;;;3.73;;
9108;SDS011;4590;51.462;6.692;2022-11-12T07:11:15;8.65;;;3.92;;
9108;SDS011;4590;51.462;6.692;2022-11-12T07:13:42;6.85;;;3.83;;
9108;SDS011;4590;51.462;6.692;2022-11-12T07:16:11;5.90;;;3.80;;
9108;SDS011;4590;51.462;6.692;2022-11-12T07:18:42;6.22;;;3.42;;
9108;SDS011;4590;51.462;6.692;2022-11-12T07:21:10;5.43;;;3.95;;
9108;SDS011;4590;51.462;6.692;2022-11-12T07:23:37;6.80;;;3.83;;
9108;SDS011;4590;51.462;6.692;2022-11-12T07:28:32;5.53;;;3.67;;
9108;SDS011;4590;51.462;6.692;2022-11-12T07:31:02;6.20;;;3.37;;
9108;SDS011;4590;51.462;6.692;2022-11-12T07:33:32;6.85;;;3.92;;
9108;SDS011;4590;51.462;6.692;2022-11-12T07:36:02;7.70;;;4.28;;
9108;SDS011;4590;51.462;6.692;2022-11-12T07:38:29;7.50;;;3.42;;
9108;SDS011;4590;51.462;6.692;2022-11-12T07:43:29;6.03;;;3.50;;
9108;SDS011;4590;51.462;6.692;2022-11-12T07:46:00;5.95;;;3.33;;
9108;SDS011;4590;51.462;6.692;2022-11-12T07:48:27;6.05;;;3.67;;
9108;SDS011;4590;51.462;6.692;2022-11-12T07:50:58;7.72;;;4.25;;
9108;SDS011;4590;51.462;6.692;2022-11-12T07:53:31;6.57;;;3.55;;
9108;SDS011;4590;51.462;6.692;2022-11-12T07:56:00;5.88;;;3.58;;
9108;SDS011;4590;51.462;6.692;2022-11-12T07:58:26;7.22;;;3.45;;
9108;SDS011;4590;51.462;6.692;2022-11-12T08:00:54;7.25;;;3.65;;
9108;SDS011;4590;51.462;6.692;2022-11-12T08:03:19;5.20;;;3.17;;
9108;SDS011;4590;51.462;6.692;2022-11-12T08:05:45;6.28;;;3.28;;
9108;SDS011;4590;51.462;6.692;2022-11-12T08:08:11;5.25;;;3.20;;
9108;SDS011;4590;51.462;6.692;2022-11-12T08:10:36;6.17;;;3.97;;
9108;SDS011;4590;51.462;6.692;2022-11-12T08:13:02;5.72;;;3.55;;
9108;SDS011;4590;51.462;6.692;2022-11-12T08:15:28;4.20;;;3.05;;
9108;SDS011;4590;51.462;6.692;2022-11-12T08:17:54;4.97;;;3.07;;
9108;SDS011;4590;51.462;6.692;2022-11-12T08:20:19;6.87;;;3.47;;
9108;SDS011;4590;51.462;6.692;2022-11-12T08:22:44;5.10;;;2.87;;
9108;SDS011;4590;51.462;6.692;2022-11-12T08:25:09;6.20;;;3.13;;
9108;SDS011;4590;51.462;6.692;2022-11-12T08:27:35;5.90;;;2.90;;
9108;SDS011;4590;51.462;6.692;2022-11-12T08:30:00;3.83;;;2.50;;
9108;SDS011;4590;51.462;6.692;2022-11-12T08:32:26;3.78;;;2.60;;
9108;SDS011;4590;51.462;6.692;2022-11-12T08:34:51;5.27;;;2.60;;
9108;SDS011;4590;51.462;6.692;2022-11-12T08:37:16;3.97;;;2.30;;
9108;SDS011;4590;51.462;6.692;2022-11-12T08:39:42;4.30;;;2.37;;
9108;SDS011;4590;51.462;6.692;2022-11-12T08:42:07;4.50;;;2.23;;
9108;SDS011;4590;51.462;6.692;2022-11-12T08:44:32;3.57;;;2.27;;
9108;SDS011;4590;51.462;6.692;2022-11-12T08:46:58;4.03;;;2.37;;
9108;SDS011;4590;51.462;6.692;2022-11-12T08:49:23;5.00;;;2.50;;
9108;SDS011;4590;51.462;6.692;2022-11-12T08:51:49;4.63;;;2.30;;
9108;SDS011;4590;51.462;6.692;2022-11-12T08:54:14;4.37;;;2.27;;
9108;SDS011;4590;51.462;6.692;2022-11-12T08:56:39;4.83;;;2.10;;
9108;SDS011;4590;51.462;6.692;2022-11-12T08:59:05;4.70;;;2.40;;
9108;SDS011;4590;51.462;6.692;2022-11-12T09:01:30;3.10;;;2.07;;
9108;SDS011;4590;51.462;6.692;2022-11-12T09:03:55;3.53;;;2.13;;
9108;SDS011;4590;51.462;6.692;2022-11-12T09:06:21;3.53;;;2.20;;
9108;SDS011;4590;51.462;6.692;2022-11-12T09:08:46;3.40;;;2.03;;
9108;SDS011;4590;51.462;6.692;2022-11-12T09:11:12;3.53;;;2.10;;
9108;SDS011;4590;51.462;6.692;2022-11-12T09:13:37;2.83;;;2.00;;
9108;SDS011;4590;51.462;6.692;2022-11-12T09:16:03;5.43;;;2.43;;
9108;SDS011;4590;51.462;6.692;2022-11-12T09:18:30;3.47;;;2.05;;
9108;SDS011;4590;51.462;6.692;2022-11-12T09:20:59;4.88;;;2.17;;
9108;SDS011;4590;51.462;6.692;2022-11-12T09:23:29;5.93;;;2.05;;
9108;SDS011;4590;51.462;6.692;2022-11-12T09:25:55;4.68;;;2.42;;
9108;SDS011;4590;51.462;6.692;2022-11-12T09:28:21;4.60;;;2.00;;
9108;SDS011;4590;51.462;6.692;2022-11-12T09:30:47;3.00;;;1.87;;
9108;SDS011;4590;51.462;6.692;2022-11-12T09:33:15;4.47;;;2.35;;
9108;SDS011;4590;51.462;6.692;2022-11-12T09:35:41;4.15;;;2.00;;
9108;SDS011;4590;51.462;6.692;2022-11-12T09:38:07;4.15;;;1.70;;
9108;SDS011;4590;51.462;6.692;2022-11-12T09:43:09;3.22;;;1.98;;
9108;SDS011;4590;51.462;6.692;2022-11-12T09:45:40;3.60;;;1.52;;
9108;SDS011;4590;51.462;6.692;2022-11-12T09:48:07;4.13;;;1.90;;
9108;SDS011;4590;51.462;6.692;2022-11-12T09:50:37;4.75;;;1.80;;
9108;SDS011;4590;51.462;6.692;2022-11-12T09:53:17;3.58;;;1.90;;
9108;SDS011;4590;51.462;6.692;2022-11-12T09:55:50;3.47;;;1.80;;
9108;SDS011;4590;51.462;6.692;2022-11-12T09:58:16;2.53;;;1.47;;
9108;SDS011;4590;51.462;6.692;2022-11-12T10:00:56;2.78;;;1.70;;
9108;SDS011;4590;51.462;6.692;2022-11-12T10:03:35;3.03;;;1.70;;
9108;SDS011;4590;51.462;6.692;2022-11-12T10:06:11;4.85;;;1.73;;
9108;SDS011;4590;51.462;6.692;2022-11-12T10:08:49;2.65;;;1.60;;
9108;SDS011;4590;51.462;6.692;2022-11-12T10:11:49;2.55;;;1.40;;
9108;SDS011;4590;51.462;6.692;2022-11-12T10:17:49;2.13;;;1.40;;
9108;SDS011;4590;51.462;6.692;2022-11-12T10:20:20;2.38;;;1.42;;
9108;SDS011;4590;51.462;6.692;2022-11-12T10:25:40;3.45;;;1.52;;
9108;SDS011;4590;51.462;6.692;2022-11-12T10:28:52;2.17;;;1.20;;
9108;SDS011;4590;51.462;6.692;2022-11-12T10:31:20;3.25;;;1.23;;
9108;SDS011;4590;51.462;6.692;2022-11-12T10:33:45;1.83;;;1.33;;
9108;SDS011;4590;51.462;6.692;2022-11-12T10:36:30;2.80;;;1.30;;
9108;SDS011;4590;51.462;6.692;2022-11-12T10:38:59;2.03;;;1.27;;
9108;SDS011;4590;51.462;6.692;2022-11-12T10:41:29;2.80;;;1.27;;
9108;SDS011;4590;51.462;6.692;2022-11-12T10:43:59;2.47;;;1.45;;
9108;SDS011;4590;51.462;6.692;2022-11-12T10:46:37;2.83;;;1.23;;
9108;SDS011;4590;51.462;6.692;2022-11-12T10:49:04;3.00;;;1.52;;
9108;SDS011;4590;51.462;6.692;2022-11-12T10:51:38;2.30;;;1.37;;
9108;SDS011;4590;51.462;6.692;2022-11-12T10:54:18;2.28;;;1.63;;
9108;SDS011;4590;51.462;6.692;2022-11-12T10:56:50;3.30;;;1.92;;
9108;SDS011;4590;51.462;6.692;2022-11-12T10:59:17;3.50;;;1.63;;
9108;SDS011;4590;51.462;6.692;2022-11-12T11:01:43;2.00;;;1.30;;
9108;SDS011;4590;51.462;6.692;2022-11-12T11:04:52;3.20;;;1.35;;
9108;SDS011;4590;51.462;6.692;2022-11-12T11:09:50;2.97;;;1.45;;
9108;SDS011;4590;51.462;6.692;2022-11-12T11:12:27;3.28;;;1.88;;
9108;SDS011;4590;51.462;6.692;2022-11-12T11:15:04;3.42;;;1.48;;
9108;SDS011;4590;51.462;6.692;2022-11-12T11:17:32;2.85;;;1.70;;
9108;SDS011;4590;51.462;6.692;2022-11-12T11:19:58;3.33;;;1.77;;
9108;SDS011;4590;51.462;6.692;2022-11-12T11:27:40;2.88;;;1.70;;
9108;SDS011;4590;51.462;6.692;2022-11-12T11:30:25;3.40;;;1.70;;
9108;SDS011;4590;51.462;6.692;2022-11-12T11:38:41;2.85;;;1.70;;
9108;SDS011;4590;51.462;6.692;2022-11-12T11:50:28;3.42;;;1.70;;
9108;SDS011;4590;51.462;6.692;2022-11-12T11:55:52;2.78;;;1.60;;
9108;SDS011;4590;51.462;6.692;2022-11-12T11:58:30;3.60;;;1.77;;
9108;SDS011;4590;51.462;6.692;2022-11-12T12:03:48;2.30;;;1.60;;
9108;SDS011;4590;51.462;6.692;2022-11-12T12:06:22;5.53;;;1.63;;
9108;SDS011;4590;51.462;6.692;2022-11-12T12:09:14;3.22;;;1.83;;
9108;SDS011;4590;51.462;6.692;2022-11-12T12:14:29;2.65;;;1.33;;
9108;SDS011;4590;51.462;6.692;2022-11-12T12:20:24;2.80;;;1.50;;
9108;SDS011;4590;51.462;6.692;2022-11-12T12:22:59;3.22;;;1.73;;
9108;SDS011;4590;51.462;6.692;2022-11-12T12:25:29;2.45;;;1.60;;
9108;SDS011;4590;51.462;6.692;2022-11-12T12:30:58;3.83;;;1.98;;
9108;SDS011;4590;51.462;6.692;2022-11-12T12:33:29;2.60;;;1.60;;
9108;SDS011;4590;51.462;6.692;2022-11-12T12:36:31;3.25;;;1.70;;
9108;SDS011;4590;51.462;6.692;2022-11-12T12:39:10;4.65;;;1.88;;
9108;SDS011;4590;51.462;6.692;2022-11-12T12:44:09;3.55;;;1.90;;
9108;SDS011;4590;51.462;6.692;2022-11-12T12:46:55;4.57;;;2.20;;
9108;SDS011;4590;51.462;6.692;2022-11-12T12:49:27;3.15;;;1.90;;
9108;SDS011;4590;51.462;6.692;2022-11-12T12:52:05;3.25;;;2.00;;
9108;SDS011;4590;51.462;6.692;2022-11-12T12:56:58;4.03;;;1.40;;
9108;SDS011;4590;51.462;6.692;2022-11-12T12:59:23;4.30;;;1.90;;
9108;SDS011;4590;51.462;6.692;2022-11-12T13:01:59;5.17;;;1.43;;
9108;SDS011;4590;51.462;6.692;2022-11-12T13:07:35;3.90;;;1.85;;
9108;SDS011;4590;51.462;6.692;2022-11-12T13:10:32;3.72;;;1.90;;
9108;SDS011;4590;51.462;6.692;2022-11-12T13:13:02;3.28;;;1.65;;
9108;SDS011;4590;51.462;6.692;2022-11-12T13:15:47;3.40;;;1.50;;
9108;SDS011;4590;51.462;6.692;2022-11-12T13:21:11;2.63;;;1.83;;
9108;SDS011;4590;51.462;6.692;2022-11-12T13:23:47;4.63;;;2.05;;
9108;SDS011;4590;51.462;6.692;2022-11-12T13:26:41;4.10;;;2.17;;
9108;SDS011;4590;51.462;6.692;2022-11-12T13:29:19;4.47;;;1.40;;
9108;SDS011;4590;51.462;6.692;2022-11-12T13:31:49;5.15;;;2.75;;
9108;SDS011;4590;51.462;6.692;2022-11-12T13:48:19;2.58;;;1.60;;
9108;SDS011;4590;51.462;6.692;2022-11-12T13:50:59;4.50;;;1.95;;
9108;SDS011;4590;51.462;6.692;2022-11-12T13:53:27;3.67;;;1.80;;
9108;SDS011;4590;51.462;6.692;2022-11-12T13:55:55;3.83;;;1.73;;
9108;SDS011;4590;51.462;6.692;2022-11-12T13:58:30;4.33;;;1.67;;
9108;SDS011;4590;51.462;6.692;2022-11-12T14:00:58;3.17;;;1.60;;
9108;SDS011;4590;51.462;6.692;2022-11-12T14:03:39;3.85;;;1.88;;
9108;SDS011;4590;51.462;6.692;2022-11-12T14:06:15;3.45;;;1.63;;
9108;SDS011;4590;51.462;6.692;2022-11-12T14:11:48;3.78;;;1.80;;
9108;SDS011;4590;51.462;6.692;2022-11-12T14:14:23;3.00;;;1.70;;
9108;SDS011;4590;51.462;6.692;2022-11-12T14:22:37;4.60;;;1.42;;
9108;SDS011;4590;51.462;6.692;2022-11-12T14:25:09;2.40;;;1.40;;
9108;SDS011;4590;51.462;6.692;2022-11-12T14:27:41;2.83;;;1.40;;
9108;SDS011;4590;51.462;6.692;2022-11-12T14:32:35;5.97;;;1.77;;
9108;SDS011;4590;51.462;6.692;2022-11-12T14:37:50;3.38;;;1.52;;
9108;SDS011;4590;51.462;6.692;2022-11-12T14:40:20;3.40;;;1.52;;
9108;SDS011;4590;51.462;6.692;2022-11-12T14:42:46;4.15;;;1.90;;
9108;SDS011;4590;51.462;6.692;2022-11-12T14:45:13;3.40;;;1.80;;
9108;SDS011;4590;51.462;6.692;2022-11-12T14:47:41;4.75;;;1.73;;
9108;SDS011;4590;51.462;6.692;2022-11-12T14:50:10;3.65;;;1.75;;
9108;SDS011;4590;51.462;6.692;2022-11-12T14:52:41;2.05;;;1.50;;
9108;SDS011;4590;51.462;6.692;2022-11-12T14:55:10;2.45;;;1.60;;
9108;SDS011;4590;51.462;6.692;2022-11-12T14:57:39;2.53;;;1.52;;
9108;SDS011;4590;51.462;6.692;2022-11-12T15:00:19;3.03;;;1.70;;
9108;SDS011;4590;51.462;6.692;2022-11-12T15:02:46;3.75;;;1.80;;
9108;SDS011;4590;51.462;6.692;2022-11-12T15:05:13;4.13;;;1.50;;
9108;SDS011;4590;51.462;6.692;2022-11-12T15:15:29;2.70;;;1.80;;
9108;SDS011;4590;51.462;6.692;2022-11-12T15:17:57;2.75;;;1.92;;
9108;SDS011;4590;51.462;6.692;2022-11-12T15:20:23;4.03;;;1.85;;
9108;SDS011;4590;51.462;6.692;2022-11-12T15:22:50;3.47;;;1.83;;
9108;SDS011;4590;51.462;6.692;2022-11-12T15:27:47;4.25;;;2.40;;
9108;SDS011;4590;51.462;6.692;2022-11-12T15:30:15;3.47;;;2.13;;
9108;SDS011;4590;51.462;6.692;2022-11-12T15:32:44;5.03;;;1.92;;
9108;SDS011;4590;51.462;6.692;2022-11-12T15:37:49;3.92;;;2.00;;
9108;SDS011;4590;51.462;6.692;2022-11-12T15:40:17;2.97;;;1.80;;
9108;SDS011;4590;51.462;6.692;2022-11-12T15:42:44;3.92;;;1.98;;
9108;SDS011;4590;51.462;6.692;2022-11-12T15:45:18;3.78;;;2.30;;
9108;SDS011;4590;51.462;6.692;2022-11-12T15:47:45;3.92;;;1.77;;
9108;SDS011;4590;51.462;6.692;2022-11-12T15:52:44;3.75;;;2.10;;
9108;SDS011;4590;51.462;6.692;2022-11-12T15:55:10;4.70;;;1.90;;
9108;SDS011;4590;51.462;6.692;2022-11-12T15:57:45;6.20;;;2.30;;
9108;SDS011;4590;51.462;6.692;2022-11-12T16:00:15;4.07;;;2.40;;
9108;SDS011;4590;51.462;6.692;2022-11-12T16:02:43;4.85;;;2.53;;
9108;SDS011;4590;51.462;6.692;2022-11-12T16:05:15;4.80;;;2.22;;
9108;SDS011;4590;51.462;6.692;2022-11-12T16:07:42;3.80;;;2.50;;
9108;SDS011;4590;51.462;6.692;2022-11-12T16:10:14;6.40;;;3.03;;
9108;SDS011;4590;51.462;6.692;2022-11-12T16:12:42;4.80;;;3.03;;
9108;SDS011;4590;51.462;6.692;2022-11-12T16:15:16;9.68;;;3.20;;
9108;SDS011;4590;51.462;6.692;2022-11-12T16:17:43;6.40;;;4.13;;
9108;SDS011;4590;51.462;6.692;2022-11-12T16:20:23;6.72;;;3.97;;
9108;SDS011;4590;51.462;6.692;2022-11-12T16:22:50;8.07;;;4.75;;
9108;SDS011;4590;51.462;6.692;2022-11-12T16:25:16;13.67;;;7.90;;
9108;SDS011;4590;51.462;6.692;2022-11-12T16:27:42;12.60;;;8.63;;
9108;SDS011;4590;51.462;6.692;2022-11-12T16:30:15;13.70;;;9.37;;
9108;SDS011;4590;51.462;6.692;2022-11-12T16:32:42;14.82;;;9.90;;
9108;SDS011;4590;51.462;6.692;2022-11-12T16:35:08;15.75;;;10.05;;
9108;SDS011;4590;51.462;6.692;2022-11-12T16:37:34;14.18;;;10.50;;
9108;SDS011;4590;51.462;6.692;2022-11-12T16:40:02;13.85;;;9.50;;
9108;SDS011;4590;51.462;6.692;2022-11-12T16:44:53;9.53;;;7.27;;
9108;SDS011;4590;51.462;6.692;2022-11-12T16:47:19;10.07;;;6.57;;
9108;SDS011;4590;51.462;6.692;2022-11-12T16:49:44;9.17;;;6.20;;
9108;SDS011;4590;51.462;6.692;2022-11-12T16:52:09;9.40;;;5.97;;
9108;SDS011;4590;51.462;6.692;2022-11-12T16:54:34;8.97;;;5.13;;
9108;SDS011;4590;51.462;6.692;2022-11-12T16:57:00;6.97;;;4.63;;
9108;SDS011;4590;51.462;6.692;2022-11-12T16:59:25;10.53;;;6.27;;
9108;SDS011;4590;51.462;6.692;2022-11-12T17:01:50;11.10;;;7.63;;
9108;SDS011;4590;51.462;6.692;2022-11-12T17:04:16;11.57;;;8.40;;
9108;SDS011;4590;51.462;6.692;2022-11-12T17:06:41;13.23;;;8.97;;
9108;SDS011;4590;51.462;6.692;2022-11-12T17:09:08;12.13;;;9.13;;
9108;SDS011;4590;51.462;6.692;2022-11-12T17:11:34;13.23;;;8.65;;
9108;SDS011;4590;51.462;6.692;2022-11-12T17:14:00;12.50;;;8.93;;
9108;SDS011;4590;51.462;6.692;2022-11-12T17:16:27;13.52;;;8.88;;
9108;SDS011;4590;51.462;6.692;2022-11-12T17:18:53;12.68;;;9.23;;
9108;SDS011;4590;51.462;6.692;2022-11-12T17:21:20;12.18;;;8.75;;
9108;SDS011;4590;51.462;6.692;2022-11-12T17:23:46;13.02;;;8.93;;
9108;SDS011;4590;51.462;6.692;2022-11-12T17:26:12;11.30;;;8.50;;